Jrs Merkur — V2FD8 — position and weather

sailwx.info

Track history (hours):
 
Tides and Currents Weather Stations Pressure Air Temp Water Temp Dewpoint Dewpoint Depression Visibility Wind Speed Wind Dir Waves Ship Positions

Jrs Merkur

Last reported at 2016-May-25 04:09 UTC. Time now 2016-May-25 15:03 UTC.
Position N 48°59' W 005°03'.

Length 107 m; draft 7 m.

Type: Cargo ship. MMSI: 305644000.

Date/timePositionNaut miles runAvg speedWind from/ knotsBaromVisibWave heightAir tempDewpointWater temp
2016-May-25 04:09N 48°59' W 005°03'  
2016-May-22 17:33N 39°10' W 009°50'1111.1
2016-May-22 16:33N 38°59' W 009°50'1111.1
2016-May-22 15:34N 38°48' W 009°50'1111.1
2016-May-22 14:33N 38°37' W 009°49'1111.0
2016-May-22 13:33N 38°26' W 009°46'1110.9
2016-May-22 12:33N 38°15' W 009°42'1110.7
2016-May-22 11:33N 38°05' W 009°39'1110.9
2016-May-22 10:32N 37°54' W 009°36'229 9.9
2016-May-21 11:21N 35°60' W 005°29'910.6
2016-May-21 10:32N 36°03' W 005°18'  
Track history (hours):
 
Tides and Currents Weather Stations Pressure Air Temp Water Temp Dewpoint Dewpoint Depression Visibility Wind Speed Wind Dir Waves Ship Positions

Jrs Merkur

Last reported at 2016-May-25 04:09 UTC. Time now 2016-May-25 15:03 UTC.
Position N 48°59' W 005°03'.

Length 107 m; draft 7 m.

Type: Cargo ship. MMSI: 305644000.

Date/timePositionNaut miles runAvg speedWind from/ knotsBaromVisibWave heightAir tempDewpointWater temp
2016-May-25 04:09N 48°59' W 005°03'  
2016-May-22 17:33N 39°10' W 009°50'1111.1
2016-May-22 16:33N 38°59' W 009°50'1111.1
2016-May-22 15:34N 38°48' W 009°50'1111.1
2016-May-22 14:33N 38°37' W 009°49'1111.0
2016-May-22 13:33N 38°26' W 009°46'1110.9
2016-May-22 12:33N 38°15' W 009°42'1110.7
2016-May-22 11:33N 38°05' W 009°39'1110.9
2016-May-22 10:32N 37°54' W 009°36'229 9.9
2016-May-21 11:21N 35°60' W 005°29'910.6
2016-May-21 10:32N 36°03' W 005°18'  

Dump ship's entire track history